sensor_id;sensor_type;location;lat;lon;timestamp;temperature;humidity
49236;DHT22;35067;48.134;8.378;2022-08-19T00:01:16;17.00;99.90
49236;DHT22;35067;48.134;8.378;2022-08-19T00:03:17;17.00;99.90
49236;DHT22;35067;48.134;8.378;2022-08-19T00:05:18;17.00;99.90
49236;DHT22;35067;48.134;8.378;2022-08-19T00:07:20;17.00;99.90
49236;DHT22;35067;48.134;8.378;2022-08-19T00:09:22;17.00;99.90
49236;DHT22;35067;48.134;8.378;2022-08-19T00:11:23;17.00;99.90
49236;DHT22;35067;48.134;8.378;2022-08-19T00:13:24;17.10;99.90
49236;DHT22;35067;48.134;8.378;2022-08-19T00:15:24;17.00;99.90
49236;DHT22;35067;48.134;8.378;2022-08-19T00:17:25;17.00;99.90
49236;DHT22;35067;48.134;8.378;2022-08-19T00:19:26;17.00;99.90
49236;DHT22;35067;48.134;8.378;2022-08-19T00:21:27;16.90;99.90
49236;DHT22;35067;48.134;8.378;2022-08-19T00:23:27;17.00;99.90
49236;DHT22;35067;48.134;8.378;2022-08-19T00:25:28;17.00;99.90
49236;DHT22;35067;48.134;8.378;2022-08-19T00:27:28;17.00;99.90
49236;DHT22;35067;48.134;8.378;2022-08-19T00:29:29;16.90;99.90
49236;DHT22;35067;48.134;8.378;2022-08-19T00:31:30;16.90;99.90
49236;DHT22;35067;48.134;8.378;2022-08-19T00:33:32;16.90;99.90
49236;DHT22;35067;48.134;8.378;2022-08-19T00:35:33;16.80;99.90
49236;DHT22;35067;48.134;8.378;2022-08-19T00:37:34;16.80;99.90
49236;DHT22;35067;48.134;8.378;2022-08-19T00:39:35;16.80;99.90
49236;DHT22;35067;48.134;8.378;2022-08-19T00:41:36;16.80;99.90
49236;DHT22;35067;48.134;8.378;2022-08-19T00:43:37;16.80;99.90
49236;DHT22;35067;48.134;8.378;2022-08-19T00:45:39;16.80;99.90
49236;DHT22;35067;48.134;8.378;2022-08-19T00:47:42;16.80;99.90
49236;DHT22;35067;48.134;8.378;2022-08-19T00:49:52;16.80;99.90
49236;DHT22;35067;48.134;8.378;2022-08-19T00:54:30;16.80;99.90
49236;DHT22;35067;48.134;8.378;2022-08-19T00:56:31;16.80;99.90
49236;DHT22;35067;48.134;8.378;2022-08-19T00:58:34;16.90;99.90
49236;DHT22;35067;48.134;8.378;2022-08-19T01:00:36;16.90;99.90
49236;DHT22;35067;48.134;8.378;2022-08-19T01:02:37;16.90;99.90
49236;DHT22;35067;48.134;8.378;2022-08-19T01:04:38;16.90;99.90
49236;DHT22;35067;48.134;8.378;2022-08-19T01:06:40;16.90;99.90
49236;DHT22;35067;48.134;8.378;2022-08-19T01:08:41;16.90;99.90
49236;DHT22;35067;48.134;8.378;2022-08-19T01:10:47;16.90;99.90
49236;DHT22;35067;48.134;8.378;2022-08-19T01:12:49;16.90;99.90
49236;DHT22;35067;48.134;8.378;2022-08-19T01:14:51;16.90;99.90
49236;DHT22;35067;48.134;8.378;2022-08-19T01:16:54;16.90;99.90
49236;DHT22;35067;48.134;8.378;2022-08-19T01:18:55;16.90;99.90
49236;DHT22;35067;48.134;8.378;2022-08-19T01:21:02;16.80;99.90
49236;DHT22;35067;48.134;8.378;2022-08-19T01:23:03;16.80;99.90
49236;DHT22;35067;48.134;8.378;2022-08-19T01:25:05;16.80;99.90
49236;DHT22;35067;48.134;8.378;2022-08-19T01:27:07;16.80;99.90
49236;DHT22;35067;48.134;8.378;2022-08-19T01:29:08;16.90;99.90
49236;DHT22;35067;48.134;8.378;2022-08-19T01:31:15;16.80;99.90
49236;DHT22;35067;48.134;8.378;2022-08-19T01:33:16;16.90;99.90
49236;DHT22;35067;48.134;8.378;2022-08-19T01:35:17;16.90;99.90
49236;DHT22;35067;48.134;8.378;2022-08-19T01:37:18;16.80;99.90
49236;DHT22;35067;48.134;8.378;2022-08-19T01:39:22;16.80;99.90
49236;DHT22;35067;48.134;8.378;2022-08-19T01:41:24;16.80;99.90
49236;DHT22;35067;48.134;8.378;2022-08-19T01:43:24;16.90;99.90
49236;DHT22;35067;48.134;8.378;2022-08-19T01:45:27;16.90;99.90
49236;DHT22;35067;48.134;8.378;2022-08-19T01:47:28;16.80;99.90
49236;DHT22;35067;48.134;8.378;2022-08-19T01:49:29;16.80;99.90
49236;DHT22;35067;48.134;8.378;2022-08-19T01:51:30;16.90;99.90
49236;DHT22;35067;48.134;8.378;2022-08-19T01:53:30;16.90;99.90
49236;DHT22;35067;48.134;8.378;2022-08-19T01:55:31;16.90;99.90
49236;DHT22;35067;48.134;8.378;2022-08-19T01:57:33;16.90;99.90
49236;DHT22;35067;48.134;8.378;2022-08-19T01:59:34;16.80;99.90
49236;DHT22;35067;48.134;8.378;2022-08-19T02:01:36;16.80;99.90
49236;DHT22;35067;48.134;8.378;2022-08-19T02:03:37;16.90;99.90
49236;DHT22;35067;48.134;8.378;2022-08-19T02:05:38;16.90;99.90
49236;DHT22;35067;48.134;8.378;2022-08-19T02:07:40;16.80;99.90
49236;DHT22;35067;48.134;8.378;2022-08-19T02:09:41;16.80;99.90
49236;DHT22;35067;48.134;8.378;2022-08-19T02:11:41;16.80;99.90
49236;DHT22;35067;48.134;8.378;2022-08-19T02:13:42;16.70;99.90
49236;DHT22;35067;48.134;8.378;2022-08-19T02:15:43;16.70;99.90
49236;DHT22;35067;48.134;8.378;2022-08-19T02:17:44;16.80;99.90
49236;DHT22;35067;48.134;8.378;2022-08-19T02:19:44;16.80;99.90
49236;DHT22;35067;48.134;8.378;2022-08-19T02:21:45;16.80;99.90
49236;DHT22;35067;48.134;8.378;2022-08-19T02:23:46;16.70;99.90
49236;DHT22;35067;48.134;8.378;2022-08-19T02:25:48;16.60;99.90
49236;DHT22;35067;48.134;8.378;2022-08-19T02:27:48;16.60;99.90
49236;DHT22;35067;48.134;8.378;2022-08-19T02:29:50;16.60;99.90
49236;DHT22;35067;48.134;8.378;2022-08-19T02:31:51;16.60;99.90
49236;DHT22;35067;48.134;8.378;2022-08-19T02:33:53;16.60;99.90
49236;DHT22;35067;48.134;8.378;2022-08-19T02:35:53;16.50;99.90
49236;DHT22;35067;48.134;8.378;2022-08-19T02:37:54;16.50;99.90
49236;DHT22;35067;48.134;8.378;2022-08-19T02:40:13;16.50;99.90
49236;DHT22;35067;48.134;8.378;2022-08-19T02:42:14;16.50;99.90
49236;DHT22;35067;48.134;8.378;2022-08-19T02:44:15;16.60;99.90
49236;DHT22;35067;48.134;8.378;2022-08-19T02:46:22;16.50;99.90
49236;DHT22;35067;48.134;8.378;2022-08-19T02:48:24;16.50;99.90
49236;DHT22;35067;48.134;8.378;2022-08-19T02:50:26;16.40;99.90
49236;DHT22;35067;48.134;8.378;2022-08-19T02:52:26;16.40;99.90
49236;DHT22;35067;48.134;8.378;2022-08-19T02:54:27;16.40;99.90
49236;DHT22;35067;48.134;8.378;2022-08-19T02:56:28;16.30;99.90
49236;DHT22;35067;48.134;8.378;2022-08-19T02:58:29;16.30;99.90
49236;DHT22;35067;48.134;8.378;2022-08-19T03:00:29;16.30;99.90
49236;DHT22;35067;48.134;8.378;2022-08-19T03:02:30;16.30;99.90
49236;DHT22;35067;48.134;8.378;2022-08-19T03:04:30;16.30;99.90
49236;DHT22;35067;48.134;8.378;2022-08-19T03:06:31;16.30;99.90
49236;DHT22;35067;48.134;8.378;2022-08-19T03:08:32;16.30;99.90
49236;DHT22;35067;48.134;8.378;2022-08-19T03:10:32;16.40;99.90
49236;DHT22;35067;48.134;8.378;2022-08-19T03:12:37;16.40;99.90
49236;DHT22;35067;48.134;8.378;2022-08-19T03:14:37;16.40;99.90
49236;DHT22;35067;48.134;8.378;2022-08-19T03:16:48;16.30;99.90
49236;DHT22;35067;48.134;8.378;2022-08-19T03:18:49;16.20;99.90
49236;DHT22;35067;48.134;8.378;2022-08-19T03:20:52;16.30;99.90
49236;DHT22;35067;48.134;8.378;2022-08-19T03:22:55;16.30;99.90
49236;DHT22;35067;48.134;8.378;2022-08-19T03:24:56;16.40;99.90
49236;DHT22;35067;48.134;8.378;2022-08-19T03:26:57;16.40;99.90
49236;DHT22;35067;48.134;8.378;2022-08-19T03:29:03;16.30;99.90
49236;DHT22;35067;48.134;8.378;2022-08-19T03:31:06;16.30;99.90
49236;DHT22;35067;48.134;8.378;2022-08-19T03:33:10;16.30;99.90
49236;DHT22;35067;48.134;8.378;2022-08-19T03:35:12;16.30;99.90
49236;DHT22;35067;48.134;8.378;2022-08-19T03:37:13;16.30;99.90
49236;DHT22;35067;48.134;8.378;2022-08-19T03:39:14;16.30;99.90
49236;DHT22;35067;48.134;8.378;2022-08-19T03:41:18;16.30;99.90
49236;DHT22;35067;48.134;8.378;2022-08-19T03:43:19;16.30;99.90
49236;DHT22;35067;48.134;8.378;2022-08-19T03:45:19;16.20;99.90
49236;DHT22;35067;48.134;8.378;2022-08-19T03:47:20;16.20;99.90
49236;DHT22;35067;48.134;8.378;2022-08-19T03:49:23;16.20;99.90
49236;DHT22;35067;48.134;8.378;2022-08-19T03:51:31;16.30;99.90
49236;DHT22;35067;48.134;8.378;2022-08-19T03:53:33;16.40;99.90
49236;DHT22;35067;48.134;8.378;2022-08-19T03:55:34;16.40;99.90
49236;DHT22;35067;48.134;8.378;2022-08-19T03:57:38;16.30;99.90
49236;DHT22;35067;48.134;8.378;2022-08-19T03:59:39;16.30;99.90
49236;DHT22;35067;48.134;8.378;2022-08-19T04:01:40;16.20;99.90
49236;DHT22;35067;48.134;8.378;2022-08-19T04:03:41;16.10;99.90
49236;DHT22;35067;48.134;8.378;2022-08-19T04:05:41;16.20;99.90
49236;DHT22;35067;48.134;8.378;2022-08-19T04:07:42;16.20;99.90
49236;DHT22;35067;48.134;8.378;2022-08-19T04:09:42;16.30;99.90
49236;DHT22;35067;48.134;8.378;2022-08-19T04:11:47;16.30;99.90
49236;DHT22;35067;48.134;8.378;2022-08-19T04:13:50;16.30;99.90
49236;DHT22;35067;48.134;8.378;2022-08-19T04:15:51;16.40;99.90
49236;DHT22;35067;48.134;8.378;2022-08-19T04:17:52;16.40;99.90
49236;DHT22;35067;48.134;8.378;2022-08-19T04:19:53;16.40;99.90
49236;DHT22;35067;48.134;8.378;2022-08-19T04:21:54;16.40;99.90
49236;DHT22;35067;48.134;8.378;2022-08-19T04:23:56;16.40;99.90
49236;DHT22;35067;48.134;8.378;2022-08-19T04:25:57;16.30;99.90
49236;DHT22;35067;48.134;8.378;2022-08-19T04:27:58;16.30;99.90
49236;DHT22;35067;48.134;8.378;2022-08-19T04:29:58;16.30;99.90
49236;DHT22;35067;48.134;8.378;2022-08-19T04:32:00;16.20;99.90
49236;DHT22;35067;48.134;8.378;2022-08-19T04:34:03;16.20;99.90
49236;DHT22;35067;48.134;8.378;2022-08-19T04:36:03;16.30;99.90
49236;DHT22;35067;48.134;8.378;2022-08-19T04:38:04;16.30;99.90
49236;DHT22;35067;48.134;8.378;2022-08-19T04:40:06;16.30;99.90
49236;DHT22;35067;48.134;8.378;2022-08-19T04:42:25;16.40;99.90
49236;DHT22;35067;48.134;8.378;2022-08-19T04:44:41;16.40;99.90
49236;DHT22;35067;48.134;8.378;2022-08-19T04:46:41;16.40;99.90
49236;DHT22;35067;48.134;8.378;2022-08-19T04:48:42;16.40;99.90
49236;DHT22;35067;48.134;8.378;2022-08-19T04:50:43;16.30;99.90
49236;DHT22;35067;48.134;8.378;2022-08-19T04:52:44;16.40;99.90
49236;DHT22;35067;48.134;8.378;2022-08-19T04:54:45;16.40;99.90
49236;DHT22;35067;48.134;8.378;2022-08-19T04:56:45;16.40;99.90
49236;DHT22;35067;48.134;8.378;2022-08-19T04:58:47;16.40;99.90
49236;DHT22;35067;48.134;8.378;2022-08-19T05:00:47;16.50;99.90
49236;DHT22;35067;48.134;8.378;2022-08-19T05:02:48;16.40;99.90
49236;DHT22;35067;48.134;8.378;2022-08-19T05:04:49;16.40;99.90
49236;DHT22;35067;48.134;8.378;2022-08-19T05:06:50;16.30;99.90
49236;DHT22;35067;48.134;8.378;2022-08-19T05:08:52;16.30;99.90
49236;DHT22;35067;48.134;8.378;2022-08-19T05:10:53;16.40;99.90
49236;DHT22;35067;48.134;8.378;2022-08-19T05:12:53;16.30;99.90
49236;DHT22;35067;48.134;8.378;2022-08-19T05:14:54;16.40;99.90
49236;DHT22;35067;48.134;8.378;2022-08-19T05:16:56;16.40;99.90
49236;DHT22;35067;48.134;8.378;2022-08-19T05:18:57;16.40;99.90
49236;DHT22;35067;48.134;8.378;2022-08-19T05:21:19;16.30;99.90
49236;DHT22;35067;48.134;8.378;2022-08-19T05:23:39;16.40;99.90
49236;DHT22;35067;48.134;8.378;2022-08-19T05:25:39;16.40;99.90
49236;DHT22;35067;48.134;8.378;2022-08-19T05:27:41;16.50;99.90
49236;DHT22;35067;48.134;8.378;2022-08-19T05:29:42;16.40;99.90
49236;DHT22;35067;48.134;8.378;2022-08-19T05:31:43;16.40;99.90
49236;DHT22;35067;48.134;8.378;2022-08-19T05:33:44;16.40;99.90
49236;DHT22;35067;48.134;8.378;2022-08-19T05:35:44;16.40;99.90
49236;DHT22;35067;48.134;8.378;2022-08-19T05:37:46;16.50;99.90
49236;DHT22;35067;48.134;8.378;2022-08-19T05:39:46;16.50;99.90
49236;DHT22;35067;48.134;8.378;2022-08-19T05:42:00;16.50;99.90
49236;DHT22;35067;48.134;8.378;2022-08-19T05:44:06;16.60;99.90
49236;DHT22;35067;48.134;8.378;2022-08-19T05:46:17;16.60;99.90
49236;DHT22;35067;48.134;8.378;2022-08-19T05:48:18;16.50;99.90
49236;DHT22;35067;48.134;8.378;2022-08-19T05:50:21;16.60;99.90
49236;DHT22;35067;48.134;8.378;2022-08-19T05:52:21;16.60;99.90
49236;DHT22;35067;48.134;8.378;2022-08-19T05:54:23;16.60;99.90
49236;DHT22;35067;48.134;8.378;2022-08-19T05:56:23;16.70;99.90
49236;DHT22;35067;48.134;8.378;2022-08-19T05:58:24;16.60;99.90
49236;DHT22;35067;48.134;8.378;2022-08-19T06:00:25;16.80;99.90
49236;DHT22;35067;48.134;8.378;2022-08-19T06:02:26;16.80;99.90
49236;DHT22;35067;48.134;8.378;2022-08-19T06:04:27;16.50;99.90
49236;DHT22;35067;48.134;8.378;2022-08-19T06:06:28;16.50;99.90
49236;DHT22;35067;48.134;8.378;2022-08-19T06:08:29;16.60;99.90
49236;DHT22;35067;48.134;8.378;2022-08-19T06:10:30;16.70;99.90
49236;DHT22;35067;48.134;8.378;2022-08-19T06:12:32;16.70;99.90
49236;DHT22;35067;48.134;8.378;2022-08-19T06:14:36;16.70;99.90
49236;DHT22;35067;48.134;8.378;2022-08-19T06:16:39;16.70;99.90
49236;DHT22;35067;48.134;8.378;2022-08-19T06:18:39;16.70;99.90
49236;DHT22;35067;48.134;8.378;2022-08-19T06:20:41;16.80;99.90
49236;DHT22;35067;48.134;8.378;2022-08-19T06:22:44;16.80;99.90
49236;DHT22;35067;48.134;8.378;2022-08-19T06:24:45;16.90;99.90
49236;DHT22;35067;48.134;8.378;2022-08-19T06:26:47;16.70;99.90
49236;DHT22;35067;48.134;8.378;2022-08-19T06:28:48;16.70;99.90
49236;DHT22;35067;48.134;8.378;2022-08-19T06:30:49;16.60;99.90
49236;DHT22;35067;48.134;8.378;2022-08-19T06:32:50;16.60;99.90
49236;DHT22;35067;48.134;8.378;2022-08-19T06:34:50;16.60;99.90
49236;DHT22;35067;48.134;8.378;2022-08-19T06:36:52;16.70;99.90
49236;DHT22;35067;48.134;8.378;2022-08-19T06:38:54;16.70;99.90
49236;DHT22;35067;48.134;8.378;2022-08-19T06:41:05;16.50;99.90
49236;DHT22;35067;48.134;8.378;2022-08-19T06:43:05;16.50;99.90
49236;DHT22;35067;48.134;8.378;2022-08-19T06:45:06;16.70;99.90
49236;DHT22;35067;48.134;8.378;2022-08-19T06:47:11;16.70;99.90
49236;DHT22;35067;48.134;8.378;2022-08-19T06:49:12;16.80;99.90
49236;DHT22;35067;48.134;8.378;2022-08-19T06:51:16;16.70;99.90
49236;DHT22;35067;48.134;8.378;2022-08-19T06:53:18;16.80;99.90
49236;DHT22;35067;48.134;8.378;2022-08-19T06:55:19;16.80;99.90
49236;DHT22;35067;48.134;8.378;2022-08-19T06:57:20;16.90;99.90
49236;DHT22;35067;48.134;8.378;2022-08-19T06:59:23;16.90;99.90
49236;DHT22;35067;48.134;8.378;2022-08-19T07:01:27;16.80;99.90
49236;DHT22;35067;48.134;8.378;2022-08-19T07:03:33;16.70;99.90
49236;DHT22;35067;48.134;8.378;2022-08-19T07:05:41;16.70;99.90
49236;DHT22;35067;48.134;8.378;2022-08-19T07:07:42;16.60;99.90
49236;DHT22;35067;48.134;8.378;2022-08-19T07:09:44;16.80;99.90
49236;DHT22;35067;48.134;8.378;2022-08-19T07:11:47;16.90;99.90
49236;DHT22;35067;48.134;8.378;2022-08-19T07:13:48;17.00;99.90
49236;DHT22;35067;48.134;8.378;2022-08-19T07:15:49;17.10;99.90
49236;DHT22;35067;48.134;8.378;2022-08-19T07:17:50;17.00;99.90
49236;DHT22;35067;48.134;8.378;2022-08-19T07:19:52;16.90;99.90
49236;DHT22;35067;48.134;8.378;2022-08-19T07:21:54;16.80;99.90
49236;DHT22;35067;48.134;8.378;2022-08-19T07:23:56;16.90;99.90
49236;DHT22;35067;48.134;8.378;2022-08-19T07:25:57;16.80;99.90
49236;DHT22;35067;48.134;8.378;2022-08-19T07:27:58;17.00;99.90
49236;DHT22;35067;48.134;8.378;2022-08-19T07:29:58;17.10;99.90
49236;DHT22;35067;48.134;8.378;2022-08-19T07:32:00;17.20;99.90
49236;DHT22;35067;48.134;8.378;2022-08-19T07:34:02;17.10;99.90
49236;DHT22;35067;48.134;8.378;2022-08-19T07:36:07;17.00;99.90
49236;DHT22;35067;48.134;8.378;2022-08-19T07:38:11;17.10;99.90
49236;DHT22;35067;48.134;8.378;2022-08-19T07:40:12;17.10;99.90
49236;DHT22;35067;48.134;8.378;2022-08-19T07:42:13;17.20;99.90
49236;DHT22;35067;48.134;8.378;2022-08-19T07:44:15;17.20;99.90
49236;DHT22;35067;48.134;8.378;2022-08-19T07:46:16;17.30;99.90
49236;DHT22;35067;48.134;8.378;2022-08-19T07:48:17;17.30;99.90
49236;DHT22;35067;48.134;8.378;2022-08-19T07:50:19;17.60;99.90
49236;DHT22;35067;48.134;8.378;2022-08-19T07:52:20;17.60;99.90
49236;DHT22;35067;48.134;8.378;2022-08-19T07:54:22;17.50;99.90
49236;DHT22;35067;48.134;8.378;2022-08-19T07:56:23;17.80;99.90
49236;DHT22;35067;48.134;8.378;2022-08-19T07:58:23;18.00;99.90
49236;DHT22;35067;48.134;8.378;2022-08-19T08:00:24;18.10;99.90
49236;DHT22;35067;48.134;8.378;2022-08-19T08:02:25;18.20;99.90
49236;DHT22;35067;48.134;8.378;2022-08-19T08:04:26;18.20;99.90
49236;DHT22;35067;48.134;8.378;2022-08-19T08:06:46;18.10;99.90
49236;DHT22;35067;48.134;8.378;2022-08-19T08:09:05;18.10;99.90
49236;DHT22;35067;48.134;8.378;2022-08-19T08:11:13;18.00;99.90
49236;DHT22;35067;48.134;8.378;2022-08-19T08:13:13;17.90;99.90
49236;DHT22;35067;48.134;8.378;2022-08-19T08:15:15;18.10;99.90
49236;DHT22;35067;48.134;8.378;2022-08-19T08:17:20;18.10;99.90
49236;DHT22;35067;48.134;8.378;2022-08-19T08:19:23;17.90;99.90
49236;DHT22;35067;48.134;8.378;2022-08-19T08:21:24;17.80;99.90
49236;DHT22;35067;48.134;8.378;2022-08-19T08:23:25;17.90;99.90
49236;DHT22;35067;48.134;8.378;2022-08-19T08:25:26;17.80;99.90
49236;DHT22;35067;48.134;8.378;2022-08-19T08:27:27;18.00;99.90
49236;DHT22;35067;48.134;8.378;2022-08-19T08:29:30;17.90;99.90
49236;DHT22;35067;48.134;8.378;2022-08-19T08:31:31;18.00;99.90
49236;DHT22;35067;48.134;8.378;2022-08-19T08:33:33;18.30;99.90
49236;DHT22;35067;48.134;8.378;2022-08-19T08:35:34;18.10;99.90
49236;DHT22;35067;48.134;8.378;2022-08-19T08:37:35;18.20;99.90
49236;DHT22;35067;48.134;8.378;2022-08-19T08:39:36;18.20;99.90
49236;DHT22;35067;48.134;8.378;2022-08-19T08:42:05;18.20;99.90
49236;DHT22;35067;48.134;8.378;2022-08-19T08:44:14;18.30;99.90
49236;DHT22;35067;48.134;8.378;2022-08-19T08:49:04;17.80;99.90
49236;DHT22;35067;48.134;8.378;2022-08-19T08:51:11;17.90;99.90
49236;DHT22;35067;48.134;8.378;2022-08-19T08:53:16;17.90;99.90
49236;DHT22;35067;48.134;8.378;2022-08-19T08:55:24;17.70;99.90
49236;DHT22;35067;48.134;8.378;2022-08-19T08:59:48;17.80;99.90
49236;DHT22;35067;48.134;8.378;2022-08-19T09:01:52;17.70;99.90
49236;DHT22;35067;48.134;8.378;2022-08-19T09:03:52;17.70;99.90
49236;DHT22;35067;48.134;8.378;2022-08-19T09:06:18;17.50;99.90
49236;DHT22;35067;48.134;8.378;2022-08-19T09:08:51;17.50;99.90
49236;DHT22;35067;48.134;8.378;2022-08-19T09:10:56;17.40;99.90
49236;DHT22;35067;48.134;8.378;2022-08-19T09:15:07;17.40;99.90
49236;DHT22;35067;48.134;8.378;2022-08-19T09:17:09;17.50;99.90
49236;DHT22;35067;48.134;8.378;2022-08-19T09:19:10;17.40;99.90
49236;DHT22;35067;48.134;8.378;2022-08-19T09:21:11;17.50;99.90
49236;DHT22;35067;48.134;8.378;2022-08-19T09:23:12;17.60;99.90
49236;DHT22;35067;48.134;8.378;2022-08-19T09:25:16;17.60;99.90
49236;DHT22;35067;48.134;8.378;2022-08-19T09:27:18;17.50;99.90
49236;DHT22;35067;48.134;8.378;2022-08-19T09:29:19;17.60;99.90
49236;DHT22;35067;48.134;8.378;2022-08-19T09:31:27;17.70;99.90
49236;DHT22;35067;48.134;8.378;2022-08-19T09:33:28;17.80;99.90
49236;DHT22;35067;48.134;8.378;2022-08-19T09:35:29;17.80;99.90
49236;DHT22;35067;48.134;8.378;2022-08-19T09:37:30;17.80;99.90
49236;DHT22;35067;48.134;8.378;2022-08-19T09:39:30;17.50;99.90
49236;DHT22;35067;48.134;8.378;2022-08-19T09:41:31;17.50;99.90
49236;DHT22;35067;48.134;8.378;2022-08-19T09:43:33;17.60;99.90
49236;DHT22;35067;48.134;8.378;2022-08-19T09:45:36;17.60;99.90
49236;DHT22;35067;48.134;8.378;2022-08-19T09:47:37;17.60;99.90
49236;DHT22;35067;48.134;8.378;2022-08-19T09:49:38;17.50;99.90
49236;DHT22;35067;48.134;8.378;2022-08-19T09:51:39;17.30;99.90
49236;DHT22;35067;48.134;8.378;2022-08-19T09:53:40;17.30;99.90
49236;DHT22;35067;48.134;8.378;2022-08-19T09:55:43;17.20;99.90
49236;DHT22;35067;48.134;8.378;2022-08-19T09:57:44;17.20;99.90
49236;DHT22;35067;48.134;8.378;2022-08-19T09:59:45;17.20;99.90
49236;DHT22;35067;48.134;8.378;2022-08-19T10:01:45;17.10;99.90
49236;DHT22;35067;48.134;8.378;2022-08-19T10:03:51;17.20;99.90
49236;DHT22;35067;48.134;8.378;2022-08-19T10:05:54;17.10;99.90
49236;DHT22;35067;48.134;8.378;2022-08-19T10:07:55;17.30;99.90
49236;DHT22;35067;48.134;8.378;2022-08-19T10:09:56;17.30;99.90
49236;DHT22;35067;48.134;8.378;2022-08-19T10:11:56;17.30;99.90
49236;DHT22;35067;48.134;8.378;2022-08-19T10:13:57;17.70;99.90
49236;DHT22;35067;48.134;8.378;2022-08-19T10:16:07;17.70;99.90
49236;DHT22;35067;48.134;8.378;2022-08-19T10:18:08;17.80;99.90
49236;DHT22;35067;48.134;8.378;2022-08-19T10:20:09;17.80;99.90
49236;DHT22;35067;48.134;8.378;2022-08-19T10:22:09;18.00;99.90
49236;DHT22;35067;48.134;8.378;2022-08-19T10:24:14;18.10;99.90
49236;DHT22;35067;48.134;8.378;2022-08-19T10:26:27;18.10;99.90
49236;DHT22;35067;48.134;8.378;2022-08-19T10:28:28;18.20;99.90
49236;DHT22;35067;48.134;8.378;2022-08-19T10:30:29;18.30;99.90
49236;DHT22;35067;48.134;8.378;2022-08-19T10:32:29;18.30;99.90
49236;DHT22;35067;48.134;8.378;2022-08-19T10:34:30;18.50;99.30
49236;DHT22;35067;48.134;8.378;2022-08-19T10:36:34;18.50;98.90
49236;DHT22;35067;48.134;8.378;2022-08-19T10:38:36;18.60;99.30
49236;DHT22;35067;48.134;8.378;2022-08-19T10:40:36;18.70;99.00
49236;DHT22;35067;48.134;8.378;2022-08-19T10:42:37;18.50;99.20
49236;DHT22;35067;48.134;8.378;2022-08-19T10:44:38;18.20;99.90
49236;DHT22;35067;48.134;8.378;2022-08-19T10:46:41;18.30;99.90
49236;DHT22;35067;48.134;8.378;2022-08-19T10:48:43;18.20;99.90
49236;DHT22;35067;48.134;8.378;2022-08-19T10:50:44;18.10;99.90
49236;DHT22;35067;48.134;8.378;2022-08-19T10:53:05;18.10;99.90
49236;DHT22;35067;48.134;8.378;2022-08-19T10:55:06;18.10;99.90
49236;DHT22;35067;48.134;8.378;2022-08-19T10:57:25;18.40;99.90
49236;DHT22;35067;48.134;8.378;2022-08-19T10:59:29;18.70;99.30
49236;DHT22;35067;48.134;8.378;2022-08-19T11:01:31;18.50;98.50
49236;DHT22;35067;48.134;8.378;2022-08-19T11:03:33;18.60;98.70
49236;DHT22;35067;48.134;8.378;2022-08-19T11:05:33;18.70;98.00
49236;DHT22;35067;48.134;8.378;2022-08-19T11:07:34;18.80;97.80
49236;DHT22;35067;48.134;8.378;2022-08-19T11:09:40;19.00;97.10
49236;DHT22;35067;48.134;8.378;2022-08-19T11:11:42;19.20;96.80
49236;DHT22;35067;48.134;8.378;2022-08-19T11:13:43;19.30;96.60
49236;DHT22;35067;48.134;8.378;2022-08-19T11:15:44;19.60;96.00
49236;DHT22;35067;48.134;8.378;2022-08-19T11:17:47;19.70;94.50
49236;DHT22;35067;48.134;8.378;2022-08-19T11:19:48;19.70;94.20
49236;DHT22;35067;48.134;8.378;2022-08-19T11:21:50;20.30;94.30
49236;DHT22;35067;48.134;8.378;2022-08-19T11:23:55;20.70;92.50
49236;DHT22;35067;48.134;8.378;2022-08-19T11:25:57;20.70;91.10
49236;DHT22;35067;48.134;8.378;2022-08-19T11:27:58;20.50;91.70
49236;DHT22;35067;48.134;8.378;2022-08-19T11:29:58;20.40;92.40
49236;DHT22;35067;48.134;8.378;2022-08-19T11:31:59;20.40;90.80
49236;DHT22;35067;48.134;8.378;2022-08-19T11:34:03;20.40;92.40
49236;DHT22;35067;48.134;8.378;2022-08-19T11:36:06;20.50;91.50
49236;DHT22;35067;48.134;8.378;2022-08-19T11:38:07;20.70;91.30
49236;DHT22;35067;48.134;8.378;2022-08-19T11:40:09;20.70;91.90
49236;DHT22;35067;48.134;8.378;2022-08-19T11:42:10;20.70;91.10
49236;DHT22;35067;48.134;8.378;2022-08-19T11:44:29;21.00;90.90
49236;DHT22;35067;48.134;8.378;2022-08-19T11:46:30;20.90;88.20
49236;DHT22;35067;48.134;8.378;2022-08-19T11:48:31;20.60;88.60
49236;DHT22;35067;48.134;8.378;2022-08-19T11:50:32;20.40;90.30
49236;DHT22;35067;48.134;8.378;2022-08-19T11:52:32;20.10;90.20
49236;DHT22;35067;48.134;8.378;2022-08-19T11:54:33;20.30;90.50
49236;DHT22;35067;48.134;8.378;2022-08-19T11:56:34;20.40;90.00
49236;DHT22;35067;48.134;8.378;2022-08-19T11:58:35;20.60;90.80
49236;DHT22;35067;48.134;8.378;2022-08-19T12:00:37;20.40;90.20
49236;DHT22;35067;48.134;8.378;2022-08-19T12:02:38;20.10;91.00
49236;DHT22;35067;48.134;8.378;2022-08-19T12:04:39;20.30;90.80
49236;DHT22;35067;48.134;8.378;2022-08-19T12:06:41;20.40;90.50
49236;DHT22;35067;48.134;8.378;2022-08-19T12:08:42;20.40;91.80
49236;DHT22;35067;48.134;8.378;2022-08-19T12:10:44;20.50;88.10
49236;DHT22;35067;48.134;8.378;2022-08-19T12:12:45;20.30;90.40
49236;DHT22;35067;48.134;8.378;2022-08-19T12:14:46;20.10;91.10
49236;DHT22;35067;48.134;8.378;2022-08-19T12:16:47;19.80;91.60
49236;DHT22;35067;48.134;8.378;2022-08-19T12:18:48;20.10;92.20
49236;DHT22;35067;48.134;8.378;2022-08-19T12:20:52;20.20;91.00
49236;DHT22;35067;48.134;8.378;2022-08-19T12:22:54;20.30;90.80
49236;DHT22;35067;48.134;8.378;2022-08-19T12:24:55;20.20;90.60
49236;DHT22;35067;48.134;8.378;2022-08-19T12:26:56;20.00;91.40
49236;DHT22;35067;48.134;8.378;2022-08-19T12:28:59;19.90;91.80
49236;DHT22;35067;48.134;8.378;2022-08-19T12:31:00;20.00;92.40
49236;DHT22;35067;48.134;8.378;2022-08-19T12:33:00;20.20;91.10
49236;DHT22;35067;48.134;8.378;2022-08-19T12:35:01;20.10;91.00
49236;DHT22;35067;48.134;8.378;2022-08-19T12:37:03;20.10;91.70
49236;DHT22;35067;48.134;8.378;2022-08-19T12:39:05;20.10;90.50
49236;DHT22;35067;48.134;8.378;2022-08-19T12:41:12;19.90;91.50
49236;DHT22;35067;48.134;8.378;2022-08-19T12:43:14;20.00;91.40
49236;DHT22;35067;48.134;8.378;2022-08-19T12:45:15;20.10;90.90
49236;DHT22;35067;48.134;8.378;2022-08-19T12:47:16;20.00;91.60
49236;DHT22;35067;48.134;8.378;2022-08-19T12:49:17;20.30;89.00
49236;DHT22;35067;48.134;8.378;2022-08-19T12:51:18;20.30;89.50
49236;DHT22;35067;48.134;8.378;2022-08-19T12:53:20;20.40;89.50
49236;DHT22;35067;48.134;8.378;2022-08-19T12:55:20;20.50;89.60
49236;DHT22;35067;48.134;8.378;2022-08-19T12:57:23;20.40;85.90
49236;DHT22;35067;48.134;8.378;2022-08-19T12:59:26;20.20;85.90
49236;DHT22;35067;48.134;8.378;2022-08-19T13:01:27;20.20;87.40
49236;DHT22;35067;48.134;8.378;2022-08-19T13:03:30;20.20;87.70